sensor_id;sensor_type;location;lat;lon;timestamp;P1;durP1;ratioP1;P2;durP2;ratioP2
47337;SDS011;33069;51.970;5.892;2023-02-21T00:02:19;60.58;;;36.80;;
47337;SDS011;33069;51.970;5.892;2023-02-21T00:05:03;57.75;;;34.67;;
47337;SDS011;33069;51.970;5.892;2023-02-21T00:07:48;60.33;;;33.28;;
47337;SDS011;33069;51.970;5.892;2023-02-21T00:10:32;50.17;;;30.27;;
47337;SDS011;33069;51.970;5.892;2023-02-21T00:13:16;56.83;;;34.40;;
47337;SDS011;33069;51.970;5.892;2023-02-21T00:16:01;58.17;;;33.10;;
47337;SDS011;33069;51.970;5.892;2023-02-21T00:18:45;55.30;;;32.83;;
47337;SDS011;33069;51.970;5.892;2023-02-21T00:21:29;58.95;;;35.20;;
47337;SDS011;33069;51.970;5.892;2023-02-21T00:24:15;60.95;;;34.47;;
47337;SDS011;33069;51.970;5.892;2023-02-21T00:27:01;58.13;;;36.35;;
47337;SDS011;33069;51.970;5.892;2023-02-21T00:29:46;59.85;;;35.67;;
47337;SDS011;33069;51.970;5.892;2023-02-21T00:32:33;70.47;;;38.25;;
47337;SDS011;33069;51.970;5.892;2023-02-21T00:38:02;60.58;;;33.00;;
47337;SDS011;33069;51.970;5.892;2023-02-21T00:40:46;66.63;;;37.03;;
47337;SDS011;33069;51.970;5.892;2023-02-21T00:46:16;71.75;;;38.95;;
47337;SDS011;33069;51.970;5.892;2023-02-21T00:49:02;62.90;;;30.67;;
47337;SDS011;33069;51.970;5.892;2023-02-21T00:51:46;74.00;;;37.28;;
47337;SDS011;33069;51.970;5.892;2023-02-21T00:57:15;73.70;;;39.95;;
47337;SDS011;33069;51.970;5.892;2023-02-21T00:59:59;71.97;;;38.03;;
47337;SDS011;33069;51.970;5.892;2023-02-21T01:05:28;67.18;;;35.20;;
47337;SDS011;33069;51.970;5.892;2023-02-21T01:10:56;76.07;;;40.35;;
47337;SDS011;33069;51.970;5.892;2023-02-21T01:13:41;79.93;;;41.15;;
47337;SDS011;33069;51.970;5.892;2023-02-21T01:21:55;77.97;;;38.80;;
47337;SDS011;33069;51.970;5.892;2023-02-21T01:24:39;76.43;;;38.90;;
47337;SDS011;33069;51.970;5.892;2023-02-21T01:27:24;90.30;;;43.17;;
47337;SDS011;33069;51.970;5.892;2023-02-21T01:32:53;110.28;;;47.10;;
47337;SDS011;33069;51.970;5.892;2023-02-21T01:35:37;85.95;;;42.28;;
47337;SDS011;33069;51.970;5.892;2023-02-21T01:41:06;95.15;;;45.75;;
47337;SDS011;33069;51.970;5.892;2023-02-21T01:43:55;92.47;;;43.58;;
47337;SDS011;33069;51.970;5.892;2023-02-21T01:46:48;93.03;;;44.38;;
47337;SDS011;33069;51.970;5.892;2023-02-21T01:49:34;105.03;;;48.20;;
47337;SDS011;33069;51.970;5.892;2023-02-21T01:52:22;97.18;;;39.83;;
47337;SDS011;33069;51.970;5.892;2023-02-21T01:55:08;102.07;;;45.95;;
47337;SDS011;33069;51.970;5.892;2023-02-21T01:57:54;95.82;;;42.25;;
47337;SDS011;33069;51.970;5.892;2023-02-21T02:00:39;95.63;;;45.47;;
47337;SDS011;33069;51.970;5.892;2023-02-21T02:03:24;93.57;;;43.65;;
47337;SDS011;33069;51.970;5.892;2023-02-21T02:06:11;114.57;;;48.05;;
47337;SDS011;33069;51.970;5.892;2023-02-21T02:08:57;105.68;;;43.90;;
47337;SDS011;33069;51.970;5.892;2023-02-21T02:11:45;117.47;;;49.33;;
47337;SDS011;33069;51.970;5.892;2023-02-21T02:17:22;115.50;;;49.45;;
47337;SDS011;33069;51.970;5.892;2023-02-21T02:25:34;102.20;;;43.47;;
47337;SDS011;33069;51.970;5.892;2023-02-21T02:36:52;126.00;;;47.23;;
47337;SDS011;33069;51.970;5.892;2023-02-21T02:39:39;129.77;;;51.35;;
47337;SDS011;33069;51.970;5.892;2023-02-21T02:44:55;122.32;;;49.55;;
47337;SDS011;33069;51.970;5.892;2023-02-21T02:47:30;105.25;;;47.72;;
47337;SDS011;33069;51.970;5.892;2023-02-21T02:50:00;123.47;;;49.85;;
47337;SDS011;33069;51.970;5.892;2023-02-21T02:52:27;114.30;;;47.28;;
47337;SDS011;33069;51.970;5.892;2023-02-21T02:54:57;136.30;;;53.13;;
47337;SDS011;33069;51.970;5.892;2023-02-21T02:57:46;124.47;;;47.28;;
47337;SDS011;33069;51.970;5.892;2023-02-21T03:00:13;147.10;;;53.95;;
47337;SDS011;33069;51.970;5.892;2023-02-21T03:08:31;165.68;;;55.00;;
47337;SDS011;33069;51.970;5.892;2023-02-21T03:11:18;150.00;;;50.30;;
47337;SDS011;33069;51.970;5.892;2023-02-21T03:19:12;119.47;;;46.95;;
47337;SDS011;33069;51.970;5.892;2023-02-21T03:21:49;128.45;;;46.75;;
47337;SDS011;33069;51.970;5.892;2023-02-21T03:24:21;112.43;;;43.67;;
47337;SDS011;33069;51.970;5.892;2023-02-21T03:26:50;100.78;;;40.53;;
47337;SDS011;33069;51.970;5.892;2023-02-21T03:29:20;109.10;;;42.63;;
47337;SDS011;33069;51.970;5.892;2023-02-21T03:31:52;107.78;;;43.13;;
47337;SDS011;33069;51.970;5.892;2023-02-21T03:34:20;98.50;;;43.47;;
47337;SDS011;33069;51.970;5.892;2023-02-21T03:36:46;105.00;;;42.47;;
47337;SDS011;33069;51.970;5.892;2023-02-21T03:39:13;100.95;;;40.92;;
47337;SDS011;33069;51.970;5.892;2023-02-21T03:41:39;97.72;;;39.85;;
47337;SDS011;33069;51.970;5.892;2023-02-21T03:44:05;104.38;;;43.47;;
47337;SDS011;33069;51.970;5.892;2023-02-21T03:46:30;112.35;;;45.58;;
47337;SDS011;33069;51.970;5.892;2023-02-21T03:48:56;116.03;;;44.95;;
47337;SDS011;33069;51.970;5.892;2023-02-21T03:51:22;123.57;;;44.72;;
47337;SDS011;33069;51.970;5.892;2023-02-21T03:53:48;120.10;;;43.13;;
47337;SDS011;33069;51.970;5.892;2023-02-21T03:56:13;102.18;;;38.42;;
47337;SDS011;33069;51.970;5.892;2023-02-21T03:58:39;100.53;;;39.83;;
47337;SDS011;33069;51.970;5.892;2023-02-21T04:01:05;117.50;;;42.72;;
47337;SDS011;33069;51.970;5.892;2023-02-21T04:03:30;120.88;;;46.05;;
47337;SDS011;33069;51.970;5.892;2023-02-21T04:05:56;108.68;;;43.45;;
47337;SDS011;33069;51.970;5.892;2023-02-21T04:08:22;104.85;;;42.25;;
47337;SDS011;33069;51.970;5.892;2023-02-21T04:10:48;120.10;;;47.50;;
47337;SDS011;33069;51.970;5.892;2023-02-21T04:13:13;116.82;;;46.90;;
47337;SDS011;33069;51.970;5.892;2023-02-21T04:15:39;124.93;;;46.40;;
47337;SDS011;33069;51.970;5.892;2023-02-21T04:18:05;109.65;;;42.83;;
47337;SDS011;33069;51.970;5.892;2023-02-21T04:20:30;129.65;;;49.83;;
47337;SDS011;33069;51.970;5.892;2023-02-21T04:22:56;109.13;;;43.55;;
47337;SDS011;33069;51.970;5.892;2023-02-21T04:25:22;143.88;;;50.75;;
47337;SDS011;33069;51.970;5.892;2023-02-21T04:27:48;134.25;;;48.05;;
47337;SDS011;33069;51.970;5.892;2023-02-21T04:30:14;111.80;;;43.70;;
47337;SDS011;33069;51.970;5.892;2023-02-21T04:32:40;127.10;;;49.85;;
47337;SDS011;33069;51.970;5.892;2023-02-21T04:35:05;144.45;;;49.03;;
47337;SDS011;33069;51.970;5.892;2023-02-21T04:37:31;122.78;;;46.60;;
47337;SDS011;33069;51.970;5.892;2023-02-21T04:39:57;112.03;;;45.28;;
47337;SDS011;33069;51.970;5.892;2023-02-21T04:42:23;128.75;;;49.05;;
47337;SDS011;33069;51.970;5.892;2023-02-21T04:44:49;127.07;;;47.20;;
47337;SDS011;33069;51.970;5.892;2023-02-21T04:47:14;131.50;;;49.25;;
47337;SDS011;33069;51.970;5.892;2023-02-21T04:49:40;103.55;;;41.22;;
47337;SDS011;33069;51.970;5.892;2023-02-21T04:52:06;112.75;;;47.38;;
47337;SDS011;33069;51.970;5.892;2023-02-21T04:54:31;112.45;;;45.38;;
47337;SDS011;33069;51.970;5.892;2023-02-21T04:56:57;126.53;;;48.58;;
47337;SDS011;33069;51.970;5.892;2023-02-21T04:59:23;113.50;;;46.63;;
47337;SDS011;33069;51.970;5.892;2023-02-21T05:01:48;122.07;;;44.65;;
47337;SDS011;33069;51.970;5.892;2023-02-21T05:04:14;122.82;;;47.75;;
47337;SDS011;33069;51.970;5.892;2023-02-21T05:06:40;104.57;;;41.92;;
47337;SDS011;33069;51.970;5.892;2023-02-21T05:09:06;103.85;;;42.80;;
47337;SDS011;33069;51.970;5.892;2023-02-21T05:11:32;108.75;;;41.83;;
47337;SDS011;33069;51.970;5.892;2023-02-21T05:13:59;124.55;;;48.33;;
47337;SDS011;33069;51.970;5.892;2023-02-21T05:16:24;138.80;;;50.67;;
47337;SDS011;33069;51.970;5.892;2023-02-21T05:18:50;126.85;;;47.08;;
47337;SDS011;33069;51.970;5.892;2023-02-21T05:21:16;135.23;;;48.08;;
47337;SDS011;33069;51.970;5.892;2023-02-21T05:23:44;136.55;;;52.17;;
47337;SDS011;33069;51.970;5.892;2023-02-21T05:26:20;135.90;;;50.50;;
47337;SDS011;33069;51.970;5.892;2023-02-21T05:28:57;125.72;;;48.08;;
47337;SDS011;33069;51.970;5.892;2023-02-21T05:31:23;155.27;;;55.10;;
47337;SDS011;33069;51.970;5.892;2023-02-21T05:33:49;167.35;;;55.10;;
47337;SDS011;33069;51.970;5.892;2023-02-21T05:36:15;134.35;;;47.70;;
47337;SDS011;33069;51.970;5.892;2023-02-21T05:38:46;153.40;;;53.67;;
47337;SDS011;33069;51.970;5.892;2023-02-21T05:41:13;152.20;;;56.35;;
47337;SDS011;33069;51.970;5.892;2023-02-21T05:43:41;154.75;;;54.55;;
47337;SDS011;33069;51.970;5.892;2023-02-21T05:46:15;172.18;;;55.72;;
47337;SDS011;33069;51.970;5.892;2023-02-21T05:48:46;147.23;;;50.85;;
47337;SDS011;33069;51.970;5.892;2023-02-21T05:51:13;173.60;;;56.05;;
47337;SDS011;33069;51.970;5.892;2023-02-21T05:53:39;156.10;;;54.42;;
47337;SDS011;33069;51.970;5.892;2023-02-21T05:56:05;135.82;;;48.78;;
47337;SDS011;33069;51.970;5.892;2023-02-21T05:58:31;178.35;;;52.25;;
47337;SDS011;33069;51.970;5.892;2023-02-21T06:00:57;175.13;;;54.65;;
47337;SDS011;33069;51.970;5.892;2023-02-21T06:03:23;189.55;;;57.45;;
47337;SDS011;33069;51.970;5.892;2023-02-21T06:05:49;162.38;;;49.15;;
47337;SDS011;33069;51.970;5.892;2023-02-21T06:08:14;142.02;;;47.38;;
47337;SDS011;33069;51.970;5.892;2023-02-21T06:10:40;185.70;;;56.38;;
47337;SDS011;33069;51.970;5.892;2023-02-21T06:13:06;195.85;;;58.95;;
47337;SDS011;33069;51.970;5.892;2023-02-21T06:15:31;163.80;;;51.90;;
47337;SDS011;33069;51.970;5.892;2023-02-21T06:17:57;170.73;;;54.78;;
47337;SDS011;33069;51.970;5.892;2023-02-21T06:20:23;142.18;;;50.25;;
47337;SDS011;33069;51.970;5.892;2023-02-21T06:22:49;194.48;;;59.95;;
47337;SDS011;33069;51.970;5.892;2023-02-21T06:25:15;150.90;;;52.25;;
47337;SDS011;33069;51.970;5.892;2023-02-21T06:27:40;242.77;;;62.95;;
47337;SDS011;33069;51.970;5.892;2023-02-21T06:30:08;209.13;;;58.80;;
47337;SDS011;33069;51.970;5.892;2023-02-21T06:32:34;183.02;;;56.17;;
47337;SDS011;33069;51.970;5.892;2023-02-21T06:35:00;206.30;;;57.42;;
47337;SDS011;33069;51.970;5.892;2023-02-21T06:37:26;230.25;;;60.35;;
47337;SDS011;33069;51.970;5.892;2023-02-21T06:39:52;162.85;;;50.60;;
47337;SDS011;33069;51.970;5.892;2023-02-21T06:42:18;213.80;;;58.45;;
47337;SDS011;33069;51.970;5.892;2023-02-21T06:44:44;245.30;;;62.58;;
47337;SDS011;33069;51.970;5.892;2023-02-21T06:47:11;260.10;;;65.00;;
47337;SDS011;33069;51.970;5.892;2023-02-21T06:49:37;260.60;;;62.50;;
47337;SDS011;33069;51.970;5.892;2023-02-21T06:52:03;187.20;;;54.80;;
47337;SDS011;33069;51.970;5.892;2023-02-21T06:54:29;187.15;;;54.88;;
47337;SDS011;33069;51.970;5.892;2023-02-21T06:56:55;303.50;;;68.35;;
47337;SDS011;33069;51.970;5.892;2023-02-21T06:59:21;171.15;;;54.13;;
47337;SDS011;33069;51.970;5.892;2023-02-21T07:01:47;288.77;;;64.40;;
47337;SDS011;33069;51.970;5.892;2023-02-21T07:04:13;197.25;;;55.50;;
47337;SDS011;33069;51.970;5.892;2023-02-21T07:06:38;166.57;;;51.33;;
47337;SDS011;33069;51.970;5.892;2023-02-21T07:09:04;237.48;;;61.58;;
47337;SDS011;33069;51.970;5.892;2023-02-21T07:11:30;201.95;;;55.03;;
47337;SDS011;33069;51.970;5.892;2023-02-21T07:13:57;292.05;;;70.55;;
47337;SDS011;33069;51.970;5.892;2023-02-21T07:16:23;276.23;;;64.55;;
47337;SDS011;33069;51.970;5.892;2023-02-21T07:18:50;189.18;;;51.60;;
47337;SDS011;33069;51.970;5.892;2023-02-21T07:21:16;277.60;;;59.10;;
47337;SDS011;33069;51.970;5.892;2023-02-21T07:23:44;179.45;;;50.75;;
47337;SDS011;33069;51.970;5.892;2023-02-21T07:26:10;271.95;;;61.25;;
47337;SDS011;33069;51.970;5.892;2023-02-21T07:28:36;202.77;;;53.95;;
47337;SDS011;33069;51.970;5.892;2023-02-21T07:31:02;266.23;;;60.45;;
47337;SDS011;33069;51.970;5.892;2023-02-21T07:33:28;189.48;;;52.13;;
47337;SDS011;33069;51.970;5.892;2023-02-21T07:35:54;244.25;;;56.05;;
47337;SDS011;33069;51.970;5.892;2023-02-21T07:38:24;232.75;;;57.92;;
47337;SDS011;33069;51.970;5.892;2023-02-21T07:40:58;341.35;;;66.82;;
47337;SDS011;33069;51.970;5.892;2023-02-21T07:43:26;204.10;;;55.03;;
47337;SDS011;33069;51.970;5.892;2023-02-21T07:45:53;326.48;;;65.18;;
47337;SDS011;33069;51.970;5.892;2023-02-21T07:48:19;303.65;;;60.83;;
47337;SDS011;33069;51.970;5.892;2023-02-21T07:50:45;512.90;;;81.72;;
47337;SDS011;33069;51.970;5.892;2023-02-21T07:53:12;213.23;;;56.67;;
47337;SDS011;33069;51.970;5.892;2023-02-21T07:55:38;249.73;;;58.67;;
47337;SDS011;33069;51.970;5.892;2023-02-21T07:58:04;202.43;;;48.83;;
47337;SDS011;33069;51.970;5.892;2023-02-21T08:00:30;530.55;;;78.80;;
47337;SDS011;33069;51.970;5.892;2023-02-21T08:02:56;282.52;;;62.08;;
47337;SDS011;33069;51.970;5.892;2023-02-21T08:05:23;418.63;;;71.80;;
47337;SDS011;33069;51.970;5.892;2023-02-21T08:07:49;361.27;;;64.88;;
47337;SDS011;33069;51.970;5.892;2023-02-21T08:10:22;227.25;;;57.15;;
47337;SDS011;33069;51.970;5.892;2023-02-21T08:12:48;234.93;;;55.75;;
47337;SDS011;33069;51.970;5.892;2023-02-21T08:15:14;547.63;;;80.20;;
47337;SDS011;33069;51.970;5.892;2023-02-21T08:17:40;339.23;;;67.55;;
47337;SDS011;33069;51.970;5.892;2023-02-21T08:20:06;509.17;;;77.53;;
47337;SDS011;33069;51.970;5.892;2023-02-21T08:22:32;465.10;;;73.00;;
47337;SDS011;33069;51.970;5.892;2023-02-21T08:24:58;313.15;;;62.10;;
47337;SDS011;33069;51.970;5.892;2023-02-21T08:27:24;269.17;;;56.75;;
47337;SDS011;33069;51.970;5.892;2023-02-21T08:29:50;270.27;;;56.20;;
47337;SDS011;33069;51.970;5.892;2023-02-21T08:32:17;509.38;;;77.43;;
47337;SDS011;33069;51.970;5.892;2023-02-21T08:34:43;201.05;;;53.13;;
47337;SDS011;33069;51.970;5.892;2023-02-21T08:37:10;311.08;;;63.40;;
47337;SDS011;33069;51.970;5.892;2023-02-21T08:39:45;355.40;;;61.92;;
47337;SDS011;33069;51.970;5.892;2023-02-21T08:42:11;246.13;;;55.72;;
47337;SDS011;33069;51.970;5.892;2023-02-21T08:44:37;200.38;;;51.80;;
47337;SDS011;33069;51.970;5.892;2023-02-21T08:47:03;248.68;;;53.17;;
47337;SDS011;33069;51.970;5.892;2023-02-21T08:49:29;261.55;;;57.90;;
47337;SDS011;33069;51.970;5.892;2023-02-21T08:51:55;179.63;;;47.83;;
47337;SDS011;33069;51.970;5.892;2023-02-21T08:54:20;159.20;;;46.30;;
47337;SDS011;33069;51.970;5.892;2023-02-21T08:56:46;147.13;;;44.72;;
47337;SDS011;33069;51.970;5.892;2023-02-21T08:59:13;167.82;;;46.30;;
47337;SDS011;33069;51.970;5.892;2023-02-21T09:01:39;246.00;;;57.97;;
47337;SDS011;33069;51.970;5.892;2023-02-21T09:04:05;138.23;;;41.83;;
47337;SDS011;33069;51.970;5.892;2023-02-21T09:06:30;137.75;;;41.08;;
47337;SDS011;33069;51.970;5.892;2023-02-21T09:08:56;142.93;;;42.00;;
47337;SDS011;33069;51.970;5.892;2023-02-21T09:11:22;195.82;;;49.50;;
47337;SDS011;33069;51.970;5.892;2023-02-21T09:13:48;133.88;;;41.53;;
47337;SDS011;33069;51.970;5.892;2023-02-21T09:16:14;129.20;;;39.63;;
47337;SDS011;33069;51.970;5.892;2023-02-21T09:18:40;142.70;;;40.70;;
47337;SDS011;33069;51.970;5.892;2023-02-21T09:21:05;150.13;;;42.35;;
47337;SDS011;33069;51.970;5.892;2023-02-21T09:23:31;101.05;;;34.72;;
47337;SDS011;33069;51.970;5.892;2023-02-21T09:25:57;90.55;;;31.50;;
47337;SDS011;33069;51.970;5.892;2023-02-21T09:28:23;152.63;;;42.40;;
47337;SDS011;33069;51.970;5.892;2023-02-21T09:30:49;144.20;;;41.13;;
47337;SDS011;33069;51.970;5.892;2023-02-21T09:33:15;121.95;;;36.33;;
47337;SDS011;33069;51.970;5.892;2023-02-21T09:35:41;72.50;;;26.08;;
47337;SDS011;33069;51.970;5.892;2023-02-21T09:38:07;91.15;;;32.05;;
47337;SDS011;33069;51.970;5.892;2023-02-21T09:40:39;114.63;;;35.60;;
47337;SDS011;33069;51.970;5.892;2023-02-21T09:43:13;128.27;;;37.15;;
47337;SDS011;33069;51.970;5.892;2023-02-21T09:45:42;81.90;;;30.38;;
47337;SDS011;33069;51.970;5.892;2023-02-21T09:48:13;123.43;;;35.63;;
47337;SDS011;33069;51.970;5.892;2023-02-21T09:50:51;102.15;;;34.33;;
47337;SDS011;33069;51.970;5.892;2023-02-21T09:53:30;104.43;;;34.58;;
47337;SDS011;33069;51.970;5.892;2023-02-21T09:55:59;97.35;;;32.58;;
47337;SDS011;33069;51.970;5.892;2023-02-21T09:58:29;72.63;;;27.75;;
47337;SDS011;33069;51.970;5.892;2023-02-21T10:01:00;78.28;;;30.02;;
47337;SDS011;33069;51.970;5.892;2023-02-21T10:11:54;97.93;;;35.25;;
47337;SDS011;33069;51.970;5.892;2023-02-21T10:17:55;95.95;;;32.92;;
47337;SDS011;33069;51.970;5.892;2023-02-21T10:23:37;100.40;;;34.65;;
47337;SDS011;33069;51.970;5.892;2023-02-21T10:26:11;91.68;;;32.08;;
47337;SDS011;33069;51.970;5.892;2023-02-21T10:28:44;84.60;;;31.00;;
47337;SDS011;33069;51.970;5.892;2023-02-21T10:31:14;81.40;;;33.13;;
47337;SDS011;33069;51.970;5.892;2023-02-21T10:33:45;74.55;;;29.35;;
47337;SDS011;33069;51.970;5.892;2023-02-21T10:36:18;87.15;;;30.80;;
47337;SDS011;33069;51.970;5.892;2023-02-21T10:38:54;86.80;;;30.83;;
47337;SDS011;33069;51.970;5.892;2023-02-21T10:41:27;76.75;;;29.67;;
47337;SDS011;33069;51.970;5.892;2023-02-21T10:44:07;67.25;;;27.70;;
47337;SDS011;33069;51.970;5.892;2023-02-21T10:46:39;71.25;;;29.17;;
47337;SDS011;33069;51.970;5.892;2023-02-21T10:52:03;73.90;;;30.88;;
47337;SDS011;33069;51.970;5.892;2023-02-21T10:54:32;75.13;;;30.27;;
47337;SDS011;33069;51.970;5.892;2023-02-21T10:56:58;69.45;;;27.35;;
47337;SDS011;33069;51.970;5.892;2023-02-21T10:59:26;86.38;;;33.33;;
47337;SDS011;33069;51.970;5.892;2023-02-21T11:01:54;71.47;;;28.85;;
47337;SDS011;33069;51.970;5.892;2023-02-21T11:04:25;90.40;;;33.33;;
47337;SDS011;33069;51.970;5.892;2023-02-21T11:12:18;64.07;;;27.42;;
47337;SDS011;33069;51.970;5.892;2023-02-21T11:17:24;67.47;;;26.58;;
47337;SDS011;33069;51.970;5.892;2023-02-21T11:19:57;81.28;;;29.33;;
47337;SDS011;33069;51.970;5.892;2023-02-21T11:25:03;65.38;;;25.58;;
47337;SDS011;33069;51.970;5.892;2023-02-21T11:27:34;63.67;;;26.48;;
47337;SDS011;33069;51.970;5.892;2023-02-21T11:30:15;85.78;;;29.92;;
47337;SDS011;33069;51.970;5.892;2023-02-21T11:32:48;64.20;;;25.48;;
47337;SDS011;33069;51.970;5.892;2023-02-21T11:40:25;62.75;;;25.13;;
47337;SDS011;33069;51.970;5.892;2023-02-21T11:43:25;65.28;;;24.80;;
47337;SDS011;33069;51.970;5.892;2023-02-21T11:48:58;51.35;;;21.13;;
47337;SDS011;33069;51.970;5.892;2023-02-21T11:54:12;52.67;;;21.52;;
47337;SDS011;33069;51.970;5.892;2023-02-21T11:59:23;44.45;;;19.58;;
47337;SDS011;33069;51.970;5.892;2023-02-21T12:02:17;32.67;;;17.27;;
47337;SDS011;33069;51.970;5.892;2023-02-21T12:08:19;36.38;;;16.10;;
47337;SDS011;33069;51.970;5.892;2023-02-21T12:16:31;43.35;;;18.45;;
47337;SDS011;33069;51.970;5.892;2023-02-21T12:24:43;42.15;;;17.80;;
47337;SDS011;33069;51.970;5.892;2023-02-21T12:27:36;42.53;;;16.45;;
47337;SDS011;33069;51.970;5.892;2023-02-21T12:38:24;29.80;;;13.68;;
47337;SDS011;33069;51.970;5.892;2023-02-21T12:43:37;37.30;;;14.07;;
47337;SDS011;33069;51.970;5.892;2023-02-21T12:48:49;45.53;;;16.00;;
47337;SDS011;33069;51.970;5.892;2023-02-21T12:51:26;31.55;;;13.35;;
47337;SDS011;33069;51.970;5.892;2023-02-21T12:54:04;45.60;;;16.40;;
47337;SDS011;33069;51.970;5.892;2023-02-21T12:56:51;35.67;;;15.13;;
47337;SDS011;33069;51.970;5.892;2023-02-21T13:05:50;31.58;;;14.73;;
47337;SDS011;33069;51.970;5.892;2023-02-21T13:08:31;45.35;;;16.90;;
47337;SDS011;33069;51.970;5.892;2023-02-21T13:11:24;35.70;;;16.33;;
47337;SDS011;33069;51.970;5.892;2023-02-21T13:13:55;30.05;;;14.40;;
47337;SDS011;33069;51.970;5.892;2023-02-21T13:16:23;34.28;;;15.05;;
47337;SDS011;33069;51.970;5.892;2023-02-21T13:18:51;36.05;;;15.25;;
47337;SDS011;33069;51.970;5.892;2023-02-21T13:27:10;33.13;;;15.75;;
47337;SDS011;33069;51.970;5.892;2023-02-21T13:29:42;46.00;;;18.42;;
47337;SDS011;33069;51.970;5.892;2023-02-21T13:32:12;44.33;;;16.42;;
47337;SDS011;33069;51.970;5.892;2023-02-21T13:34:58;45.65;;;17.90;;
47337;SDS011;33069;51.970;5.892;2023-02-21T13:37:27;34.20;;;14.70;;
47337;SDS011;33069;51.970;5.892;2023-02-21T13:39:56;41.35;;;18.20;;
47337;SDS011;33069;51.970;5.892;2023-02-21T13:42:29;38.60;;;17.10;;
47337;SDS011;33069;51.970;5.892;2023-02-21T14:03:38;44.13;;;17.45;;
47337;SDS011;33069;51.970;5.892;2023-02-21T14:08:48;43.70;;;18.33;;
47337;SDS011;33069;51.970;5.892;2023-02-21T14:13:52;32.78;;;14.80;;
47337;SDS011;33069;51.970;5.892;2023-02-21T14:16:25;47.88;;;18.23;;
47337;SDS011;33069;51.970;5.892;2023-02-21T14:19:06;39.20;;;16.42;;
47337;SDS011;33069;51.970;5.892;2023-02-21T14:24:16;40.15;;;16.80;;
47337;SDS011;33069;51.970;5.892;2023-02-21T14:26:50;47.35;;;19.20;;
47337;SDS011;33069;51.970;5.892;2023-02-21T14:29:42;42.20;;;17.05;;
47337;SDS011;33069;51.970;5.892;2023-02-21T14:32:41;41.45;;;17.05;;
47337;SDS011;33069;51.970;5.892;2023-02-21T14:37:41;36.88;;;15.30;;
47337;SDS011;33069;51.970;5.892;2023-02-21T14:46:05;50.30;;;20.70;;
47337;SDS011;33069;51.970;5.892;2023-02-21T15:00:24;44.83;;;19.15;;
47337;SDS011;33069;51.970;5.892;2023-02-21T15:05:57;39.33;;;18.33;;
47337;SDS011;33069;51.970;5.892;2023-02-21T15:08:25;47.00;;;19.45;;
47337;SDS011;33069;51.970;5.892;2023-02-21T15:10:53;49.08;;;21.90;;
47337;SDS011;33069;51.970;5.892;2023-02-21T15:13:28;53.28;;;22.52;;
47337;SDS011;33069;51.970;5.892;2023-02-21T15:15:59;41.63;;;16.85;;
47337;SDS011;33069;51.970;5.892;2023-02-21T15:18:29;45.67;;;20.38;;
47337;SDS011;33069;51.970;5.892;2023-02-21T15:23:32;46.22;;;19.48;;
47337;SDS011;33069;51.970;5.892;2023-02-21T15:26:00;43.63;;;19.77;;
47337;SDS011;33069;51.970;5.892;2023-02-21T15:28:46;39.10;;;19.73;;
47337;SDS011;33069;51.970;5.892;2023-02-21T15:31:34;39.58;;;18.13;;
47337;SDS011;33069;51.970;5.892;2023-02-21T15:34:04;40.30;;;18.77;;
47337;SDS011;33069;51.970;5.892;2023-02-21T15:36:30;38.80;;;18.80;;
47337;SDS011;33069;51.970;5.892;2023-02-21T15:39:05;38.75;;;18.70;;
47337;SDS011;33069;51.970;5.892;2023-02-21T15:41:46;39.08;;;18.92;;
47337;SDS011;33069;51.970;5.892;2023-02-21T15:44:15;40.05;;;19.05;;
47337;SDS011;33069;51.970;5.892;2023-02-21T15:46:59;30.25;;;14.43;;
47337;SDS011;33069;51.970;5.892;2023-02-21T15:49:34;35.22;;;17.60;;
47337;SDS011;33069;51.970;5.892;2023-02-21T15:52:05;34.28;;;17.00;;
47337;SDS011;33069;51.970;5.892;2023-02-21T15:54:32;31.52;;;15.30;;
47337;SDS011;33069;51.970;5.892;2023-02-21T15:57:00;41.03;;;18.55;;
47337;SDS011;33069;51.970;5.892;2023-02-21T15:59:27;37.35;;;17.98;;
47337;SDS011;33069;51.970;5.892;2023-02-21T16:02:15;29.08;;;14.98;;
47337;SDS011;33069;51.970;5.892;2023-02-21T16:04:45;36.60;;;17.60;;
47337;SDS011;33069;51.970;5.892;2023-02-21T16:07:14;27.63;;;14.23;;
47337;SDS011;33069;51.970;5.892;2023-02-21T16:09:45;30.50;;;15.77;;
47337;SDS011;33069;51.970;5.892;2023-02-21T16:14:58;34.47;;;15.93;;
47337;SDS011;33069;51.970;5.892;2023-02-21T16:20:18;41.40;;;18.58;;
47337;SDS011;33069;51.970;5.892;2023-02-21T16:22:48;34.83;;;15.38;;
47337;SDS011;33069;51.970;5.892;2023-02-21T16:25:21;34.80;;;17.47;;
47337;SDS011;33069;51.970;5.892;2023-02-21T16:27:52;32.47;;;15.87;;
47337;SDS011;33069;51.970;5.892;2023-02-21T16:30:21;34.80;;;16.35;;
47337;SDS011;33069;51.970;5.892;2023-02-21T16:32:50;31.85;;;15.90;;
47337;SDS011;33069;51.970;5.892;2023-02-21T16:35:20;32.58;;;15.10;;
47337;SDS011;33069;51.970;5.892;2023-02-21T16:37:57;32.83;;;15.25;;
47337;SDS011;33069;51.970;5.892;2023-02-21T16:40:28;28.48;;;13.35;;
47337;SDS011;33069;51.970;5.892;2023-02-21T16:45:26;33.55;;;16.77;;
47337;SDS011;33069;51.970;5.892;2023-02-21T16:47:56;33.67;;;15.95;;
47337;SDS011;33069;51.970;5.892;2023-02-21T16:50:34;32.85;;;14.93;;
47337;SDS011;33069;51.970;5.892;2023-02-21T16:53:02;29.42;;;15.00;;
47337;SDS011;33069;51.970;5.892;2023-02-21T16:55:29;32.72;;;16.30;;
47337;SDS011;33069;51.970;5.892;2023-02-21T16:58:02;24.40;;;13.65;;
47337;SDS011;33069;51.970;5.892;2023-02-21T17:00:31;22.92;;;12.48;;
47337;SDS011;33069;51.970;5.892;2023-02-21T17:02:57;27.17;;;13.73;;
47337;SDS011;33069;51.970;5.892;2023-02-21T17:05:23;23.15;;;11.57;;
47337;SDS011;33069;51.970;5.892;2023-02-21T17:07:50;23.02;;;12.60;;
47337;SDS011;33069;51.970;5.892;2023-02-21T17:10:19;22.40;;;12.30;;
47337;SDS011;33069;51.970;5.892;2023-02-21T17:12:45;28.50;;;13.82;;
47337;SDS011;33069;51.970;5.892;2023-02-21T17:15:11;22.60;;;12.55;;
47337;SDS011;33069;51.970;5.892;2023-02-21T17:17:38;25.27;;;14.70;;
47337;SDS011;33069;51.970;5.892;2023-02-21T17:20:05;28.15;;;14.13;;
47337;SDS011;33069;51.970;5.892;2023-02-21T17:22:31;28.73;;;14.88;;
47337;SDS011;33069;51.970;5.892;2023-02-21T17:24:57;29.65;;;14.73;;
47337;SDS011;33069;51.970;5.892;2023-02-21T17:27:23;32.22;;;16.15;;
47337;SDS011;33069;51.970;5.892;2023-02-21T17:29:49;28.27;;;14.63;;
47337;SDS011;33069;51.970;5.892;2023-02-21T17:32:15;30.02;;;15.07;;
47337;SDS011;33069;51.970;5.892;2023-02-21T17:34:41;29.77;;;16.65;;
47337;SDS011;33069;51.970;5.892;2023-02-21T17:37:07;36.85;;;18.33;;
47337;SDS011;33069;51.970;5.892;2023-02-21T17:39:34;42.55;;;18.33;;
47337;SDS011;33069;51.970;5.892;2023-02-21T17:42:00;34.67;;;16.70;;
47337;SDS011;33069;51.970;5.892;2023-02-21T17:44:26;36.13;;;18.25;;
47337;SDS011;33069;51.970;5.892;2023-02-21T17:46:53;38.35;;;18.90;;
47337;SDS011;33069;51.970;5.892;2023-02-21T17:49:22;37.03;;;18.67;;
47337;SDS011;33069;51.970;5.892;2023-02-21T17:51:52;36.85;;;18.42;;
47337;SDS011;33069;51.970;5.892;2023-02-21T17:54:20;42.60;;;18.88;;
47337;SDS011;33069;51.970;5.892;2023-02-21T17:56:47;43.70;;;19.85;;
47337;SDS011;33069;51.970;5.892;2023-02-21T17:59:13;41.10;;;19.70;;